sensor_id;sensor_type;location;lat;lon;timestamp;temperature;humidity
8684;DHT22;4379;59.744;18.206;2022-11-15T00:01:15;6.10;99.90
8684;DHT22;4379;59.744;18.206;2022-11-15T00:03:44;5.90;99.90
8684;DHT22;4379;59.744;18.206;2022-11-15T00:06:11;6.00;99.90
8684;DHT22;4379;59.744;18.206;2022-11-15T00:08:38;5.70;99.90
8684;DHT22;4379;59.744;18.206;2022-11-15T00:11:05;5.80;99.90
8684;DHT22;4379;59.744;18.206;2022-11-15T00:13:33;5.80;99.90
8684;DHT22;4379;59.744;18.206;2022-11-15T00:16:01;5.80;99.90
8684;DHT22;4379;59.744;18.206;2022-11-15T00:18:29;5.70;99.90
8684;DHT22;4379;59.744;18.206;2022-11-15T00:21:04;5.70;99.90
8684;DHT22;4379;59.744;18.206;2022-11-15T00:23:33;5.80;99.90
8684;DHT22;4379;59.744;18.206;2022-11-15T00:26:01;5.70;99.90
8684;DHT22;4379;59.744;18.206;2022-11-15T00:28:28;5.70;99.90
8684;DHT22;4379;59.744;18.206;2022-11-15T00:31:07;5.90;99.90
8684;DHT22;4379;59.744;18.206;2022-11-15T00:33:34;6.00;99.90
8684;DHT22;4379;59.744;18.206;2022-11-15T00:36:07;6.10;99.90
8684;DHT22;4379;59.744;18.206;2022-11-15T00:38:37;5.90;99.90
8684;DHT22;4379;59.744;18.206;2022-11-15T00:41:06;5.90;99.90
8684;DHT22;4379;59.744;18.206;2022-11-15T00:43:36;5.80;99.90
8684;DHT22;4379;59.744;18.206;2022-11-15T00:46:03;5.70;99.90
8684;DHT22;4379;59.744;18.206;2022-11-15T00:48:30;5.80;99.90
8684;DHT22;4379;59.744;18.206;2022-11-15T00:50:58;5.80;99.90
8684;DHT22;4379;59.744;18.206;2022-11-15T00:53:25;5.90;99.90
8684;DHT22;4379;59.744;18.206;2022-11-15T00:55:53;6.00;99.90
8684;DHT22;4379;59.744;18.206;2022-11-15T00:58:20;5.90;99.90
8684;DHT22;4379;59.744;18.206;2022-11-15T01:00:47;5.90;99.90
8684;DHT22;4379;59.744;18.206;2022-11-15T01:03:14;5.80;99.90
8684;DHT22;4379;59.744;18.206;2022-11-15T01:05:42;5.90;99.90
8684;DHT22;4379;59.744;18.206;2022-11-15T01:08:16;5.80;99.90
8684;DHT22;4379;59.744;18.206;2022-11-15T01:10:43;5.50;99.90
8684;DHT22;4379;59.744;18.206;2022-11-15T01:13:11;5.40;99.90
8684;DHT22;4379;59.744;18.206;2022-11-15T01:15:41;5.50;99.90
8684;DHT22;4379;59.744;18.206;2022-11-15T01:18:09;5.60;99.90
8684;DHT22;4379;59.744;18.206;2022-11-15T01:20:43;5.60;99.90
8684;DHT22;4379;59.744;18.206;2022-11-15T01:23:11;5.60;99.90
8684;DHT22;4379;59.744;18.206;2022-11-15T01:25:38;5.50;99.90
8684;DHT22;4379;59.744;18.206;2022-11-15T01:28:05;5.60;99.90
8684;DHT22;4379;59.744;18.206;2022-11-15T01:30:33;5.40;99.90
8684;DHT22;4379;59.744;18.206;2022-11-15T01:33:00;5.50;99.90
8684;DHT22;4379;59.744;18.206;2022-11-15T01:35:27;5.40;99.90
8684;DHT22;4379;59.744;18.206;2022-11-15T01:37:54;5.40;99.90
8684;DHT22;4379;59.744;18.206;2022-11-15T01:40:21;5.40;99.90
8684;DHT22;4379;59.744;18.206;2022-11-15T01:42:49;5.30;99.90
8684;DHT22;4379;59.744;18.206;2022-11-15T01:45:16;5.30;99.90
8684;DHT22;4379;59.744;18.206;2022-11-15T01:47:53;5.20;99.90
8684;DHT22;4379;59.744;18.206;2022-11-15T01:50:25;5.10;99.90
8684;DHT22;4379;59.744;18.206;2022-11-15T01:52:54;5.10;99.90
8684;DHT22;4379;59.744;18.206;2022-11-15T01:55:24;5.20;99.90
8684;DHT22;4379;59.744;18.206;2022-11-15T01:57:55;5.20;99.90
8684;DHT22;4379;59.744;18.206;2022-11-15T02:00:24;5.20;99.90
8684;DHT22;4379;59.744;18.206;2022-11-15T02:02:51;5.20;99.90
8684;DHT22;4379;59.744;18.206;2022-11-15T02:05:18;5.10;99.90
8684;DHT22;4379;59.744;18.206;2022-11-15T02:07:46;5.00;99.90
8684;DHT22;4379;59.744;18.206;2022-11-15T02:10:18;4.90;99.90
8684;DHT22;4379;59.744;18.206;2022-11-15T02:12:46;5.10;99.90
8684;DHT22;4379;59.744;18.206;2022-11-15T02:15:14;5.10;99.90
8684;DHT22;4379;59.744;18.206;2022-11-15T02:20:34;5.20;99.90
8684;DHT22;4379;59.744;18.206;2022-11-15T02:26:46;5.00;99.90
8684;DHT22;4379;59.744;18.206;2022-11-15T02:35:06;4.70;99.90
8684;DHT22;4379;59.744;18.206;2022-11-15T02:37:44;4.70;99.90
8684;DHT22;4379;59.744;18.206;2022-11-15T02:43:03;4.80;99.90
8684;DHT22;4379;59.744;18.206;2022-11-15T02:45:56;4.80;99.90
8684;DHT22;4379;59.744;18.206;2022-11-15T02:48:27;4.80;99.90
8684;DHT22;4379;59.744;18.206;2022-11-15T02:50:55;4.70;99.90
8684;DHT22;4379;59.744;18.206;2022-11-15T02:53:26;4.70;99.90
8684;DHT22;4379;59.744;18.206;2022-11-15T02:55:55;4.70;99.90
8684;DHT22;4379;59.744;18.206;2022-11-15T03:06:55;4.80;99.90
8684;DHT22;4379;59.744;18.206;2022-11-15T03:12:07;4.80;99.90
8684;DHT22;4379;59.744;18.206;2022-11-15T03:15:07;4.70;99.90
8684;DHT22;4379;59.744;18.206;2022-11-15T03:17:43;4.70;99.90
8684;DHT22;4379;59.744;18.206;2022-11-15T03:20:16;4.80;99.90
8684;DHT22;4379;59.744;18.206;2022-11-15T03:22:47;4.90;99.90
8684;DHT22;4379;59.744;18.206;2022-11-15T03:25:22;4.80;99.90
8684;DHT22;4379;59.744;18.206;2022-11-15T03:27:52;4.70;99.90
8684;DHT22;4379;59.744;18.206;2022-11-15T03:30:21;4.70;99.90
8684;DHT22;4379;59.744;18.206;2022-11-15T03:32:54;4.60;99.90
8684;DHT22;4379;59.744;18.206;2022-11-15T03:35:25;4.60;99.90
8684;DHT22;4379;59.744;18.206;2022-11-15T03:40:47;4.70;99.90
8684;DHT22;4379;59.744;18.206;2022-11-15T03:43:35;4.50;99.90
8684;DHT22;4379;59.744;18.206;2022-11-15T03:46:13;4.80;99.90
8684;DHT22;4379;59.744;18.206;2022-11-15T03:48:56;4.90;99.90
8684;DHT22;4379;59.744;18.206;2022-11-15T03:51:24;4.90;99.90
8684;DHT22;4379;59.744;18.206;2022-11-15T03:53:51;4.70;99.90
8684;DHT22;4379;59.744;18.206;2022-11-15T03:56:18;4.60;99.90
8684;DHT22;4379;59.744;18.206;2022-11-15T03:58:46;4.60;99.90
8684;DHT22;4379;59.744;18.206;2022-11-15T04:01:13;4.70;99.90
8684;DHT22;4379;59.744;18.206;2022-11-15T04:03:41;4.80;99.90
8684;DHT22;4379;59.744;18.206;2022-11-15T04:06:08;4.60;99.90
8684;DHT22;4379;59.744;18.206;2022-11-15T04:08:35;4.60;99.90
8684;DHT22;4379;59.744;18.206;2022-11-15T04:11:02;4.80;99.90
8684;DHT22;4379;59.744;18.206;2022-11-15T04:13:29;4.80;99.90
8684;DHT22;4379;59.744;18.206;2022-11-15T04:15:57;4.80;99.90
8684;DHT22;4379;59.744;18.206;2022-11-15T04:18:25;4.90;99.90
8684;DHT22;4379;59.744;18.206;2022-11-15T04:20:52;4.90;99.90
8684;DHT22;4379;59.744;18.206;2022-11-15T04:23:38;4.80;99.90
8684;DHT22;4379;59.744;18.206;2022-11-15T04:26:24;4.80;99.90
8684;DHT22;4379;59.744;18.206;2022-11-15T04:28:51;5.00;99.90
8684;DHT22;4379;59.744;18.206;2022-11-15T04:31:38;5.00;99.90
8684;DHT22;4379;59.744;18.206;2022-11-15T04:34:06;5.00;99.90
8684;DHT22;4379;59.744;18.206;2022-11-15T04:36:33;4.90;99.90
8684;DHT22;4379;59.744;18.206;2022-11-15T04:39:19;4.90;99.90
8684;DHT22;4379;59.744;18.206;2022-11-15T04:41:46;4.90;99.90
8684;DHT22;4379;59.744;18.206;2022-11-15T04:44:13;4.90;99.90
8684;DHT22;4379;59.744;18.206;2022-11-15T04:46:41;4.80;99.90
8684;DHT22;4379;59.744;18.206;2022-11-15T04:49:08;4.80;99.90
8684;DHT22;4379;59.744;18.206;2022-11-15T04:51:35;4.80;99.90
8684;DHT22;4379;59.744;18.206;2022-11-15T04:54:02;4.70;99.90
8684;DHT22;4379;59.744;18.206;2022-11-15T04:56:30;4.70;99.90
8684;DHT22;4379;59.744;18.206;2022-11-15T04:58:57;4.70;99.90
8684;DHT22;4379;59.744;18.206;2022-11-15T05:01:24;4.70;99.90
8684;DHT22;4379;59.744;18.206;2022-11-15T05:03:51;4.70;99.90
8684;DHT22;4379;59.744;18.206;2022-11-15T05:06:37;4.90;99.90
8684;DHT22;4379;59.744;18.206;2022-11-15T05:09:04;4.90;99.90
8684;DHT22;4379;59.744;18.206;2022-11-15T05:11:31;4.80;99.90
8684;DHT22;4379;59.744;18.206;2022-11-15T05:13:59;4.90;99.90
8684;DHT22;4379;59.744;18.206;2022-11-15T05:16:26;4.90;99.90
8684;DHT22;4379;59.744;18.206;2022-11-15T05:18:54;4.80;99.90
8684;DHT22;4379;59.744;18.206;2022-11-15T05:21:22;4.90;99.90
8684;DHT22;4379;59.744;18.206;2022-11-15T05:23:49;4.90;99.90
8684;DHT22;4379;59.744;18.206;2022-11-15T05:26:18;4.90;99.90
8684;DHT22;4379;59.744;18.206;2022-11-15T05:28:46;4.90;99.90
8684;DHT22;4379;59.744;18.206;2022-11-15T05:31:15;5.00;99.90
8684;DHT22;4379;59.744;18.206;2022-11-15T05:33:43;5.00;99.90
8684;DHT22;4379;59.744;18.206;2022-11-15T05:36:18;5.10;99.90
8684;DHT22;4379;59.744;18.206;2022-11-15T05:38:48;5.00;99.90
8684;DHT22;4379;59.744;18.206;2022-11-15T05:41:18;5.00;99.90
8684;DHT22;4379;59.744;18.206;2022-11-15T05:43:46;5.00;99.90
8684;DHT22;4379;59.744;18.206;2022-11-15T05:46:14;5.10;99.90
8684;DHT22;4379;59.744;18.206;2022-11-15T05:48:46;5.10;99.90
8684;DHT22;4379;59.744;18.206;2022-11-15T05:51:15;5.10;99.90
8684;DHT22;4379;59.744;18.206;2022-11-15T05:53:43;5.10;99.90
8684;DHT22;4379;59.744;18.206;2022-11-15T05:56:11;5.20;99.90
8684;DHT22;4379;59.744;18.206;2022-11-15T05:58:39;5.10;99.90
8684;DHT22;4379;59.744;18.206;2022-11-15T06:01:06;5.10;99.90
8684;DHT22;4379;59.744;18.206;2022-11-15T06:03:34;5.10;99.90
8684;DHT22;4379;59.744;18.206;2022-11-15T06:06:01;5.10;99.90
8684;DHT22;4379;59.744;18.206;2022-11-15T06:08:29;5.10;99.90
8684;DHT22;4379;59.744;18.206;2022-11-15T06:10:56;5.10;99.90
8684;DHT22;4379;59.744;18.206;2022-11-15T06:13:23;5.10;99.90
8684;DHT22;4379;59.744;18.206;2022-11-15T06:15:50;5.10;99.90
8684;DHT22;4379;59.744;18.206;2022-11-15T06:18:18;5.10;99.90
8684;DHT22;4379;59.744;18.206;2022-11-15T06:20:45;5.00;99.90
8684;DHT22;4379;59.744;18.206;2022-11-15T06:23:12;4.90;99.90
8684;DHT22;4379;59.744;18.206;2022-11-15T06:25:40;5.00;99.90
8684;DHT22;4379;59.744;18.206;2022-11-15T06:28:08;5.10;99.90
8684;DHT22;4379;59.744;18.206;2022-11-15T06:30:35;5.00;99.90
8684;DHT22;4379;59.744;18.206;2022-11-15T06:33:04;5.00;99.90
8684;DHT22;4379;59.744;18.206;2022-11-15T06:35:33;5.00;99.90
8684;DHT22;4379;59.744;18.206;2022-11-15T06:38:07;4.90;99.90
8684;DHT22;4379;59.744;18.206;2022-11-15T06:40:35;4.90;99.90
8684;DHT22;4379;59.744;18.206;2022-11-15T06:43:04;5.00;99.90
8684;DHT22;4379;59.744;18.206;2022-11-15T06:45:31;5.00;99.90
8684;DHT22;4379;59.744;18.206;2022-11-15T06:47:59;4.90;99.90
8684;DHT22;4379;59.744;18.206;2022-11-15T06:50:27;4.90;99.90
8684;DHT22;4379;59.744;18.206;2022-11-15T06:52:54;4.90;99.90
8684;DHT22;4379;59.744;18.206;2022-11-15T06:55:22;4.90;99.90
8684;DHT22;4379;59.744;18.206;2022-11-15T06:57:50;4.90;99.90
8684;DHT22;4379;59.744;18.206;2022-11-15T07:00:19;4.80;99.90
8684;DHT22;4379;59.744;18.206;2022-11-15T07:02:47;4.90;99.90
8684;DHT22;4379;59.744;18.206;2022-11-15T07:05:15;5.00;99.90
8684;DHT22;4379;59.744;18.206;2022-11-15T07:07:42;4.90;99.90
8684;DHT22;4379;59.744;18.206;2022-11-15T07:10:10;4.90;99.90
8684;DHT22;4379;59.744;18.206;2022-11-15T07:12:39;5.00;99.90
8684;DHT22;4379;59.744;18.206;2022-11-15T07:15:06;4.90;99.90
8684;DHT22;4379;59.744;18.206;2022-11-15T07:17:34;4.80;99.90
8684;DHT22;4379;59.744;18.206;2022-11-15T07:20:01;4.70;99.90
8684;DHT22;4379;59.744;18.206;2022-11-15T07:22:28;4.70;99.90
8684;DHT22;4379;59.744;18.206;2022-11-15T07:24:55;4.70;99.90
8684;DHT22;4379;59.744;18.206;2022-11-15T07:27:23;4.70;99.90
8684;DHT22;4379;59.744;18.206;2022-11-15T07:29:50;4.80;99.90
8684;DHT22;4379;59.744;18.206;2022-11-15T07:32:18;4.80;99.90
8684;DHT22;4379;59.744;18.206;2022-11-15T07:34:45;4.80;99.90
8684;DHT22;4379;59.744;18.206;2022-11-15T07:37:13;4.70;99.90
8684;DHT22;4379;59.744;18.206;2022-11-15T07:39:40;4.70;99.90
8684;DHT22;4379;59.744;18.206;2022-11-15T07:42:07;4.80;99.90
8684;DHT22;4379;59.744;18.206;2022-11-15T07:44:53;4.90;99.90
8684;DHT22;4379;59.744;18.206;2022-11-15T07:47:20;5.00;99.90
8684;DHT22;4379;59.744;18.206;2022-11-15T07:49:47;5.10;99.90
8684;DHT22;4379;59.744;18.206;2022-11-15T07:52:15;5.10;99.90
8684;DHT22;4379;59.744;18.206;2022-11-15T07:54:42;5.10;99.90
8684;DHT22;4379;59.744;18.206;2022-11-15T07:57:09;5.10;99.90
8684;DHT22;4379;59.744;18.206;2022-11-15T07:59:36;5.10;99.90
8684;DHT22;4379;59.744;18.206;2022-11-15T08:02:04;5.10;99.90
8684;DHT22;4379;59.744;18.206;2022-11-15T08:04:31;5.20;99.90
8684;DHT22;4379;59.744;18.206;2022-11-15T08:06:59;5.30;99.90
8684;DHT22;4379;59.744;18.206;2022-11-15T08:09:26;5.30;99.90
8684;DHT22;4379;59.744;18.206;2022-11-15T08:11:53;5.20;99.90
8684;DHT22;4379;59.744;18.206;2022-11-15T08:14:21;5.20;99.90
8684;DHT22;4379;59.744;18.206;2022-11-15T08:16:49;5.10;99.90
8684;DHT22;4379;59.744;18.206;2022-11-15T08:19:16;5.20;99.90
8684;DHT22;4379;59.744;18.206;2022-11-15T08:21:43;5.20;99.90
8684;DHT22;4379;59.744;18.206;2022-11-15T08:24:10;5.20;99.90
8684;DHT22;4379;59.744;18.206;2022-11-15T08:26:38;5.20;99.90
8684;DHT22;4379;59.744;18.206;2022-11-15T08:29:06;5.20;99.90
8684;DHT22;4379;59.744;18.206;2022-11-15T08:31:36;5.30;99.90
8684;DHT22;4379;59.744;18.206;2022-11-15T08:34:04;5.30;99.90
8684;DHT22;4379;59.744;18.206;2022-11-15T08:36:32;5.40;99.90
8684;DHT22;4379;59.744;18.206;2022-11-15T08:39:11;5.40;99.90
8684;DHT22;4379;59.744;18.206;2022-11-15T08:41:39;5.50;99.90
8684;DHT22;4379;59.744;18.206;2022-11-15T08:44:06;5.50;99.90
8684;DHT22;4379;59.744;18.206;2022-11-15T08:46:34;5.60;99.90
8684;DHT22;4379;59.744;18.206;2022-11-15T08:49:02;5.70;99.90
8684;DHT22;4379;59.744;18.206;2022-11-15T08:51:29;5.70;99.90
8684;DHT22;4379;59.744;18.206;2022-11-15T08:53:56;5.60;99.90
8684;DHT22;4379;59.744;18.206;2022-11-15T08:56:24;5.50;99.90
8684;DHT22;4379;59.744;18.206;2022-11-15T08:58:51;5.50;99.90
8684;DHT22;4379;59.744;18.206;2022-11-15T09:01:19;5.50;99.90
8684;DHT22;4379;59.744;18.206;2022-11-15T09:03:47;5.40;99.90
8684;DHT22;4379;59.744;18.206;2022-11-15T09:06:14;5.50;99.90
8684;DHT22;4379;59.744;18.206;2022-11-15T09:08:42;5.50;99.90
8684;DHT22;4379;59.744;18.206;2022-11-15T09:11:14;5.50;99.90
8684;DHT22;4379;59.744;18.206;2022-11-15T09:13:43;5.60;99.90
8684;DHT22;4379;59.744;18.206;2022-11-15T09:16:10;5.70;99.90
8684;DHT22;4379;59.744;18.206;2022-11-15T09:18:39;5.90;99.90
8684;DHT22;4379;59.744;18.206;2022-11-15T09:21:07;5.80;99.90
8684;DHT22;4379;59.744;18.206;2022-11-15T09:23:35;5.70;99.90
8684;DHT22;4379;59.744;18.206;2022-11-15T09:26:03;5.80;99.90
8684;DHT22;4379;59.744;18.206;2022-11-15T09:28:32;5.90;99.90
8684;DHT22;4379;59.744;18.206;2022-11-15T09:31:03;5.90;99.90
8684;DHT22;4379;59.744;18.206;2022-11-15T09:33:30;5.90;99.90
8684;DHT22;4379;59.744;18.206;2022-11-15T09:36:03;6.10;99.90
8684;DHT22;4379;59.744;18.206;2022-11-15T09:38:31;5.90;99.90
8684;DHT22;4379;59.744;18.206;2022-11-15T09:49:09;5.90;99.90
8684;DHT22;4379;59.744;18.206;2022-11-15T09:51:41;5.90;99.90
8684;DHT22;4379;59.744;18.206;2022-11-15T09:54:30;5.80;99.90
8684;DHT22;4379;59.744;18.206;2022-11-15T09:57:39;5.90;99.90
8684;DHT22;4379;59.744;18.206;2022-11-15T10:00:11;6.10;99.90
8684;DHT22;4379;59.744;18.206;2022-11-15T10:05:40;6.20;99.90
8684;DHT22;4379;59.744;18.206;2022-11-15T10:11:15;6.30;99.90
8684;DHT22;4379;59.744;18.206;2022-11-15T10:14:13;6.30;99.90
8684;DHT22;4379;59.744;18.206;2022-11-15T10:25:14;6.20;99.90
8684;DHT22;4379;59.744;18.206;2022-11-15T10:27:46;6.20;99.90
8684;DHT22;4379;59.744;18.206;2022-11-15T10:30:16;6.20;99.90
8684;DHT22;4379;59.744;18.206;2022-11-15T10:32:46;6.30;99.90
8684;DHT22;4379;59.744;18.206;2022-11-15T10:35:24;6.30;99.90
8684;DHT22;4379;59.744;18.206;2022-11-15T10:38:05;6.30;99.90
8684;DHT22;4379;59.744;18.206;2022-11-15T10:40:33;6.30;99.90
8684;DHT22;4379;59.744;18.206;2022-11-15T10:45:38;6.10;99.90
8684;DHT22;4379;59.744;18.206;2022-11-15T10:50:43;6.10;99.90
8684;DHT22;4379;59.744;18.206;2022-11-15T10:53:24;5.90;99.90
8684;DHT22;4379;59.744;18.206;2022-11-15T10:55:56;5.90;99.90
8684;DHT22;4379;59.744;18.206;2022-11-15T11:00:55;6.10;99.90
8684;DHT22;4379;59.744;18.206;2022-11-15T11:03:37;6.10;99.90
8684;DHT22;4379;59.744;18.206;2022-11-15T11:06:12;6.10;99.90
8684;DHT22;4379;59.744;18.206;2022-11-15T11:08:40;6.20;99.90
8684;DHT22;4379;59.744;18.206;2022-11-15T11:11:08;6.30;99.90
8684;DHT22;4379;59.744;18.206;2022-11-15T11:13:39;6.10;99.90
8684;DHT22;4379;59.744;18.206;2022-11-15T11:16:34;6.20;99.90
8684;DHT22;4379;59.744;18.206;2022-11-15T11:19:16;6.30;99.90
8684;DHT22;4379;59.744;18.206;2022-11-15T11:22:11;6.20;99.90
8684;DHT22;4379;59.744;18.206;2022-11-15T11:24:49;6.20;99.90
8684;DHT22;4379;59.744;18.206;2022-11-15T11:35:32;6.50;99.90
8684;DHT22;4379;59.744;18.206;2022-11-15T11:41:06;6.20;99.90
8684;DHT22;4379;59.744;18.206;2022-11-15T11:57:56;6.00;99.90
8684;DHT22;4379;59.744;18.206;2022-11-15T12:00:47;6.10;99.90
8684;DHT22;4379;59.744;18.206;2022-11-15T12:03:28;6.00;99.90
8684;DHT22;4379;59.744;18.206;2022-11-15T12:06:22;6.00;99.90
8684;DHT22;4379;59.744;18.206;2022-11-15T12:09:12;6.20;99.90
8684;DHT22;4379;59.744;18.206;2022-11-15T12:17:02;6.20;99.90
8684;DHT22;4379;59.744;18.206;2022-11-15T12:19:32;6.20;99.90
8684;DHT22;4379;59.744;18.206;2022-11-15T12:22:10;6.00;99.90
8684;DHT22;4379;59.744;18.206;2022-11-15T12:24:48;6.00;99.90
8684;DHT22;4379;59.744;18.206;2022-11-15T12:27:40;5.90;99.90
8684;DHT22;4379;59.744;18.206;2022-11-15T12:30:20;5.90;99.90
8684;DHT22;4379;59.744;18.206;2022-11-15T12:32:58;5.90;99.90
8684;DHT22;4379;59.744;18.206;2022-11-15T12:35:37;5.90;99.90
8684;DHT22;4379;59.744;18.206;2022-11-15T12:38:10;6.00;99.90
8684;DHT22;4379;59.744;18.206;2022-11-15T12:43:39;6.00;99.90
8684;DHT22;4379;59.744;18.206;2022-11-15T12:46:13;5.90;99.90
8684;DHT22;4379;59.744;18.206;2022-11-15T12:51:07;5.90;99.90
8684;DHT22;4379;59.744;18.206;2022-11-15T12:53:35;6.00;99.90
8684;DHT22;4379;59.744;18.206;2022-11-15T13:04:22;5.70;99.90
8684;DHT22;4379;59.744;18.206;2022-11-15T13:07:04;5.60;99.90
8684;DHT22;4379;59.744;18.206;2022-11-15T13:14:57;5.90;99.90
8684;DHT22;4379;59.744;18.206;2022-11-15T13:17:34;5.70;99.90
8684;DHT22;4379;59.744;18.206;2022-11-15T13:23:01;5.70;99.90
8684;DHT22;4379;59.744;18.206;2022-11-15T13:28:58;5.40;99.90
8684;DHT22;4379;59.744;18.206;2022-11-15T13:31:36;5.30;99.90
8684;DHT22;4379;59.744;18.206;2022-11-15T13:34:30;5.40;99.90
8684;DHT22;4379;59.744;18.206;2022-11-15T13:39:50;5.30;99.90
8684;DHT22;4379;59.744;18.206;2022-11-15T13:42:19;5.40;99.90
8684;DHT22;4379;59.744;18.206;2022-11-15T13:45:02;5.50;99.90
8684;DHT22;4379;59.744;18.206;2022-11-15T13:47:30;5.50;99.90
8684;DHT22;4379;59.744;18.206;2022-11-15T13:49:59;5.30;99.90
8684;DHT22;4379;59.744;18.206;2022-11-15T13:52:36;5.40;99.90
8684;DHT22;4379;59.744;18.206;2022-11-15T13:55:30;5.50;99.90
8684;DHT22;4379;59.744;18.206;2022-11-15T13:58:03;5.40;99.90
8684;DHT22;4379;59.744;18.206;2022-11-15T14:00:38;5.40;99.90
8684;DHT22;4379;59.744;18.206;2022-11-15T14:03:11;5.40;99.90
8684;DHT22;4379;59.744;18.206;2022-11-15T14:05:41;5.40;99.90
8684;DHT22;4379;59.744;18.206;2022-11-15T14:08:22;5.20;99.90
8684;DHT22;4379;59.744;18.206;2022-11-15T14:11:13;5.20;99.90
8684;DHT22;4379;59.744;18.206;2022-11-15T14:13:42;5.20;99.90
8684;DHT22;4379;59.744;18.206;2022-11-15T14:17:18;5.10;99.90
8684;DHT22;4379;59.744;18.206;2022-11-15T14:22:23;5.10;99.90
8684;DHT22;4379;59.744;18.206;2022-11-15T14:25:16;5.10;99.90
8684;DHT22;4379;59.744;18.206;2022-11-15T14:30:35;5.10;99.90
8684;DHT22;4379;59.744;18.206;2022-11-15T14:33:30;5.00;99.90
8684;DHT22;4379;59.744;18.206;2022-11-15T14:36:10;5.10;99.90
8684;DHT22;4379;59.744;18.206;2022-11-15T14:38:37;5.00;99.90
8684;DHT22;4379;59.744;18.206;2022-11-15T14:41:05;5.10;99.90
8684;DHT22;4379;59.744;18.206;2022-11-15T14:43:33;5.20;99.90
8684;DHT22;4379;59.744;18.206;2022-11-15T14:46:00;5.10;99.90
8684;DHT22;4379;59.744;18.206;2022-11-15T14:48:28;5.10;99.90
8684;DHT22;4379;59.744;18.206;2022-11-15T14:50:56;5.00;99.90
8684;DHT22;4379;59.744;18.206;2022-11-15T14:53:24;4.90;99.90
8684;DHT22;4379;59.744;18.206;2022-11-15T14:55:51;4.80;99.90
8684;DHT22;4379;59.744;18.206;2022-11-15T14:58:18;4.90;99.90
8684;DHT22;4379;59.744;18.206;2022-11-15T15:00:45;4.90;99.90
8684;DHT22;4379;59.744;18.206;2022-11-15T15:03:13;4.80;99.90
8684;DHT22;4379;59.744;18.206;2022-11-15T15:05:43;4.90;99.90
8684;DHT22;4379;59.744;18.206;2022-11-15T15:08:10;4.80;99.90
8684;DHT22;4379;59.744;18.206;2022-11-15T15:10:42;4.90;99.90
8684;DHT22;4379;59.744;18.206;2022-11-15T15:13:21;4.90;99.90
8684;DHT22;4379;59.744;18.206;2022-11-15T15:15:49;4.90;99.90
8684;DHT22;4379;59.744;18.206;2022-11-15T15:18:18;4.90;99.90
8684;DHT22;4379;59.744;18.206;2022-11-15T15:20:57;4.90;99.90
8684;DHT22;4379;59.744;18.206;2022-11-15T15:23:26;5.00;99.90
8684;DHT22;4379;59.744;18.206;2022-11-15T15:25:57;4.90;99.90
8684;DHT22;4379;59.744;18.206;2022-11-15T15:28:25;4.80;99.90
8684;DHT22;4379;59.744;18.206;2022-11-15T15:31:00;4.80;99.90
8684;DHT22;4379;59.744;18.206;2022-11-15T15:33:27;4.80;99.90
8684;DHT22;4379;59.744;18.206;2022-11-15T15:35:55;4.90;99.90
8684;DHT22;4379;59.744;18.206;2022-11-15T15:38:22;4.90;99.90
8684;DHT22;4379;59.744;18.206;2022-11-15T15:40:50;5.00;99.90
8684;DHT22;4379;59.744;18.206;2022-11-15T15:43:18;4.90;99.90
8684;DHT22;4379;59.744;18.206;2022-11-15T15:45:45;4.90;99.90
8684;DHT22;4379;59.744;18.206;2022-11-15T15:48:15;4.80;99.90
8684;DHT22;4379;59.744;18.206;2022-11-15T15:50:43;4.80;99.90
8684;DHT22;4379;59.744;18.206;2022-11-15T15:53:11;4.80;99.90
8684;DHT22;4379;59.744;18.206;2022-11-15T15:55:39;4.80;99.90
8684;DHT22;4379;59.744;18.206;2022-11-15T15:58:06;4.80;99.90
8684;DHT22;4379;59.744;18.206;2022-11-15T16:00:35;4.80;99.90
8684;DHT22;4379;59.744;18.206;2022-11-15T16:03:03;4.90;99.90
8684;DHT22;4379;59.744;18.206;2022-11-15T16:05:31;4.80;99.90
8684;DHT22;4379;59.744;18.206;2022-11-15T16:07:58;4.70;99.90
8684;DHT22;4379;59.744;18.206;2022-11-15T16:10:29;4.70;99.90
8684;DHT22;4379;59.744;18.206;2022-11-15T16:12:57;4.70;99.90
8684;DHT22;4379;59.744;18.206;2022-11-15T16:15:26;4.70;99.90
8684;DHT22;4379;59.744;18.206;2022-11-15T16:17:56;4.70;99.90
8684;DHT22;4379;59.744;18.206;2022-11-15T16:20:44;4.80;99.90
8684;DHT22;4379;59.744;18.206;2022-11-15T16:23:13;4.70;99.90
8684;DHT22;4379;59.744;18.206;2022-11-15T16:28:17;4.80;99.90
8684;DHT22;4379;59.744;18.206;2022-11-15T16:30:45;4.80;99.90
8684;DHT22;4379;59.744;18.206;2022-11-15T16:33:18;4.80;99.90
8684;DHT22;4379;59.744;18.206;2022-11-15T16:35:47;4.90;99.90
8684;DHT22;4379;59.744;18.206;2022-11-15T16:38:15;4.90;99.90
8684;DHT22;4379;59.744;18.206;2022-11-15T16:40:43;4.90;99.90
8684;DHT22;4379;59.744;18.206;2022-11-15T16:43:10;4.90;99.90
8684;DHT22;4379;59.744;18.206;2022-11-15T16:45:38;4.90;99.90
8684;DHT22;4379;59.744;18.206;2022-11-15T16:48:06;4.90;99.90
8684;DHT22;4379;59.744;18.206;2022-11-15T16:50:34;4.90;99.90
8684;DHT22;4379;59.744;18.206;2022-11-15T16:53:07;4.90;99.90
8684;DHT22;4379;59.744;18.206;2022-11-15T16:55:34;4.90;99.90
8684;DHT22;4379;59.744;18.206;2022-11-15T16:58:02;4.80;99.90
8684;DHT22;4379;59.744;18.206;2022-11-15T17:00:30;4.80;99.90
8684;DHT22;4379;59.744;18.206;2022-11-15T17:02:57;4.80;99.90
8684;DHT22;4379;59.744;18.206;2022-11-15T17:05:24;4.80;99.90
8684;DHT22;4379;59.744;18.206;2022-11-15T17:07:55;4.80;99.90
8684;DHT22;4379;59.744;18.206;2022-11-15T17:10:24;4.70;99.90
8684;DHT22;4379;59.744;18.206;2022-11-15T17:12:54;4.80;99.90
8684;DHT22;4379;59.744;18.206;2022-11-15T17:15:22;4.70;99.90
8684;DHT22;4379;59.744;18.206;2022-11-15T17:17:52;4.80;99.90
8684;DHT22;4379;59.744;18.206;2022-11-15T17:20:22;4.90;99.90
8684;DHT22;4379;59.744;18.206;2022-11-15T17:22:50;4.90;99.90
8684;DHT22;4379;59.744;18.206;2022-11-15T17:25:19;4.90;99.90
8684;DHT22;4379;59.744;18.206;2022-11-15T17:27:46;4.90;99.90
8684;DHT22;4379;59.744;18.206;2022-11-15T17:30:15;4.80;99.90
8684;DHT22;4379;59.744;18.206;2022-11-15T17:32:42;4.90;99.90
8684;DHT22;4379;59.744;18.206;2022-11-15T17:35:11;4.90;99.90
8684;DHT22;4379;59.744;18.206;2022-11-15T17:37:42;4.80;99.90
8684;DHT22;4379;59.744;18.206;2022-11-15T17:40:10;4.80;99.90
8684;DHT22;4379;59.744;18.206;2022-11-15T17:42:40;4.80;99.90
8684;DHT22;4379;59.744;18.206;2022-11-15T17:45:09;4.80;99.90
8684;DHT22;4379;59.744;18.206;2022-11-15T17:47:38;4.90;99.90
8684;DHT22;4379;59.744;18.206;2022-11-15T17:50:05;5.00;99.90
8684;DHT22;4379;59.744;18.206;2022-11-15T17:52:33;5.00;99.90
8684;DHT22;4379;59.744;18.206;2022-11-15T17:55:00;4.90;99.90
8684;DHT22;4379;59.744;18.206;2022-11-15T17:57:29;5.00;99.90
8684;DHT22;4379;59.744;18.206;2022-11-15T17:59:57;5.00;99.90
8684;DHT22;4379;59.744;18.206;2022-11-15T18:02:24;4.90;99.90
8684;DHT22;4379;59.744;18.206;2022-11-15T18:04:52;4.90;99.90
8684;DHT22;4379;59.744;18.206;2022-11-15T18:07:20;4.90;99.90
8684;DHT22;4379;59.744;18.206;2022-11-15T18:09:49;5.00;99.90
8684;DHT22;4379;59.744;18.206;2022-11-15T18:12:17;4.90;99.90
8684;DHT22;4379;59.744;18.206;2022-11-15T18:14:46;5.00;99.90
8684;DHT22;4379;59.744;18.206;2022-11-15T18:17:14;4.90;99.90
8684;DHT22;4379;59.744;18.206;2022-11-15T18:19:45;4.90;99.90
8684;DHT22;4379;59.744;18.206;2022-11-15T18:22:18;4.90;99.90
8684;DHT22;4379;59.744;18.206;2022-11-15T18:24:46;5.00;99.90
8684;DHT22;4379;59.744;18.206;2022-11-15T18:27:14;5.00;99.90
8684;DHT22;4379;59.744;18.206;2022-11-15T18:29:42;5.00;99.90
8684;DHT22;4379;59.744;18.206;2022-11-15T18:32:11;5.00;99.90